KDET/DET METAR and TAF weather

Enter ICAO airport designator
Station Type Date Time Source
KDET METAR 2022/06/27 17:53 UTC NOAA

KDET 271753Z 29008G19KT 260V320 10SM SCT065 24/06 A3013 RMK AO2 SLP200 T02390056 10244 20189 58002


Station Type Date Time Source
KDET Decoded METAR 2022/06/27 17:53 UTC NOAA

DETROIT CITY AIRPORT, MI, United States (KDET) 42-25N 083-01W 190M
Jun 27, 2022 - 01:53 PM EDT / 2022.06.27 1753 UTC
Wind: from the WNW (290 degrees) at 9 MPH (8 KT) gusting to 22 MPH (19 KT) (direction variable):0
Visibility: 10 mile(s):0
Sky conditions: partly cloudy
Temperature: 75.0 F (23.9 C)
Dew Point: 42.1 F (5.6 C)
Relative Humidity: 30%
Pressure (altimeter): 30.13 in. Hg (1020 hPa)
Pressure tendency: 0.01 inches (0.2 hPa) lower than three hours ago
ob: KDET 271753Z 29008G19KT 260V320 10SM SCT065 24/06 A3013 RMK AO2 SLP200 T02390056 10244 20189 58002
cycle: 18

Station Type Date Time Source
KDET TAF 2022/06/27 18:27 UTC NOAA

TAF KDET 271725Z 2718/2818 31011G21KT P6SM SCT060
FM280100 35007KT P6SM SKC
FM280900 30001KT 6SM BR SKC
FM281100 28001KT P6SM FEW040 SCT250

Example: see airport list